Other Surface Observations
Issued by NWS Missoula, MT

Home | Current Version | Previous Version | Text Only | Print | Product List | Glossary On
Versions: 1 2 3 4 5 6 7 8 9 10 11 12 13 14 15 16 17 18 19 20 21 22 23 24 25 26 27 28 29 30 31 32 33 34 35 36 37 38 39 40 41 42 43 44 45 46 47 48 49 50
321
SXUS55 KMSO 120604
OSOMSO
MONTANA AWOS SUMMARY
NATIONAL WEATHER SERVICE MISSOULA MT
1103 PM MST THU FEB 11 2016

Montana AWOS Reports

LAUREL      |K6S8 120555Z AUTO 40SM 04/M08 A3022 RMK AO1 T00441077
ROUNDUP     |KRPX 120555Z AUTO 00000KT 40SM 02/M02 A3014 RMK AO1 T00221021
SCOBEY      |K9S2 120555Z AUTO 34007KT 15SM M08/M13 A3028 RMK AO1 T10771127
TWIN BRIDGES|K7S1 120555Z AUTO 00000KT 40SM 03/M03 A3021 RMK AO1 T00331027
EKALAKA     |K97M 120555Z AUTO 30004KT 15SM M03/M06 A3019 RMK AO1 T10321055




USA.gov is the U.S. government's official web portal to all federal, state and local government web resources and services.